createdAt,value
2019-04-20T00:01:16.731Z,99147.02
2019-04-20T00:03:45.652Z,99141.97
2019-04-20T00:06:19.387Z,99140.20
2019-04-20T00:08:58.863Z,99138.59
2019-04-20T00:11:31.282Z,99136.98
2019-04-20T00:14:05.618Z,99139.43
2019-04-20T00:16:33.766Z,99135.39
2019-04-20T00:19:07.169Z,99133.70
2019-04-20T00:21:57.730Z,99141.92
2019-04-20T00:24:34.063Z,99143.50
2019-04-20T00:27:30.270Z,99141.55
2019-04-20T00:29:54.880Z,99136.66
2019-04-20T00:32:20.996Z,99137.59
2019-04-20T00:34:47.091Z,99138.60
2019-04-20T00:37:19.288Z,99133.28
2019-04-20T00:39:51.033Z,99129.71
2019-04-20T00:42:32.503Z,99125.70
2019-04-20T00:45:05.627Z,99128.67
2019-04-20T00:47:37.140Z,99127.84
2019-04-20T00:50:19.633Z,99133.43
2019-04-20T00:52:54.377Z,99128.77
2019-04-20T00:55:10.506Z,99127.34
2019-04-20T00:57:51.406Z,99122.28
2019-04-20T01:00:32.833Z,99119.54
2019-04-20T01:03:07.942Z,99123.06
2019-04-20T01:05:53.005Z,99132.75
2019-04-20T01:08:17.139Z,99126.55
2019-04-20T01:10:52.534Z,99128.34
2019-04-20T01:13:24.448Z,99125.77
2019-04-20T01:16:03.299Z,99128.94
2019-04-20T01:18:28.682Z,99131.38
2019-04-20T01:21:09.533Z,99126.01
2019-04-20T01:23:40.416Z,99130.15
2019-04-20T01:26:11.465Z,99127.41
2019-04-20T01:28:54.135Z,99129.27
2019-04-20T01:31:25.430Z,99132.05
2019-04-20T01:33:56.555Z,99132.05
2019-04-20T01:36:43.031Z,99135.27
2019-04-20T01:39:07.468Z,99136.83
2019-04-20T01:41:28.593Z,99140.75
2019-04-20T01:44:02.616Z,99142.36
2019-04-20T01:46:38.340Z,99138.52
2019-04-20T01:49:13.598Z,99143.81
2019-04-20T01:51:53.616Z,99141.75
2019-04-20T01:54:31.126Z,99138.08
2019-04-20T01:57:06.263Z,99137.94
2019-04-20T01:59:56.342Z,99143.48
2019-04-20T02:02:49.736Z,99136.30
2019-04-20T02:05:25.102Z,99137.30
2019-04-20T02:07:53.184Z,99145.79
2019-04-20T02:10:33.247Z,99152.20
2019-04-20T02:13:01.054Z,99147.83
2019-04-20T02:15:37.917Z,99149.22
2019-04-20T02:18:19.117Z,99148.07
2019-04-20T02:20:54.526Z,99152.18
2019-04-20T02:23:21.450Z,99146.06
2019-04-20T02:25:43.989Z,99150.13
2019-04-20T02:28:34.035Z,99149.50
2019-04-20T02:31:23.101Z,99147.92
2019-04-20T02:34:11.422Z,99149.06
2019-04-20T02:37:05.403Z,99146.14
2019-04-20T02:44:52.641Z,99148.19
2019-04-20T02:47:16.427Z,99147.24
2019-04-20T02:50:00.243Z,99143.72
2019-04-20T02:52:21.075Z,99150.11
2019-04-20T02:54:55.034Z,99148.02
2019-04-20T02:57:32.682Z,99148.33
2019-04-20T03:02:18.235Z,99144.52
2019-04-20T03:04:42.504Z,99143.73
2019-04-20T03:07:23.282Z,99147.27
2019-04-20T03:10:03.939Z,99137.75
2019-04-20T03:12:38.382Z,99140.23
2019-04-20T03:15:03.060Z,99142.44
2019-04-20T03:17:46.250Z,99135.83
2019-04-20T03:20:10.662Z,99138.98
2019-04-20T03:23:14.288Z,99136.20
2019-04-20T03:25:45.069Z,99135.38
2019-04-20T03:28:15.549Z,99133.45
2019-04-20T03:36:12.211Z,99137.27
2019-04-20T03:38:33.297Z,99132.64
2019-04-20T03:40:59.114Z,99130.03
2019-04-20T03:43:20.214Z,99128.38
2019-04-20T03:45:59.536Z,99131.05
2019-04-20T03:48:41.163Z,99124.90
2019-04-20T03:51:26.812Z,99133.27
2019-04-20T03:54:02.758Z,99130.26
2019-04-20T03:56:49.222Z,99130.80
2019-04-20T03:59:44.299Z,99132.66
2019-04-20T04:02:45.872Z,99128.50
2019-04-20T04:05:17.649Z,99121.22
2019-04-20T04:07:40.398Z,99118.77
2019-04-20T04:10:20.656Z,99119.46
2019-04-20T04:13:14.776Z,99124.13
2019-04-20T04:15:52.265Z,99118.52
2019-04-20T04:18:29.797Z,99127.56
2019-04-20T04:21:03.050Z,99128.72
2019-04-20T04:23:44.495Z,99134.30
2019-04-20T04:26:22.488Z,99131.25
2019-04-20T04:28:49.002Z,99128.47
2019-04-20T04:31:27.839Z,99133.20
2019-04-20T04:34:12.413Z,99135.89
2019-04-20T04:36:30.265Z,99143.12
2019-04-20T04:39:11.455Z,99139.03
2019-04-20T04:41:39.732Z,99141.23
2019-04-20T04:44:11.224Z,99144.13
2019-04-20T04:46:29.287Z,99145.07
2019-04-20T04:49:11.791Z,99148.58
2019-04-20T04:51:44.631Z,99145.58
2019-04-20T04:54:16.408Z,99153.39
2019-04-20T04:56:41.724Z,99158.38
2019-04-20T04:59:14.838Z,99159.61
2019-04-20T05:01:51.454Z,99151.66
2019-04-20T05:04:55.175Z,99157.12
2019-04-20T05:07:09.315Z,99166.84
2019-04-20T05:09:29.601Z,99168.00
2019-04-20T05:12:07.144Z,99174.48
2019-04-20T05:14:47.105Z,99166.59
2019-04-20T05:17:28.121Z,99175.41
2019-04-20T05:20:02.514Z,99168.89
2019-04-20T05:22:38.872Z,99176.42
2019-04-20T05:25:27.354Z,99171.49
2019-04-20T05:28:01.379Z,99172.82
2019-04-20T05:30:16.252Z,99170.83
2019-04-20T05:32:54.795Z,99175.14
2019-04-20T05:35:43.716Z,99175.13
2019-04-20T05:38:28.100Z,99173.98
2019-04-20T05:40:50.492Z,99171.83
2019-04-20T05:43:33.521Z,99176.19
2019-04-20T05:46:05.985Z,99180.86
2019-04-20T05:48:45.705Z,99180.71
2019-04-20T05:51:20.749Z,99182.81
2019-04-20T05:53:48.814Z,99185.49
2019-04-20T05:56:29.162Z,99189.55
2019-04-20T05:58:56.965Z,99189.38
2019-04-20T06:01:36.281Z,99190.92
2019-04-20T06:04:00.086Z,99185.91
2019-04-20T06:06:37.595Z,99191.60
2019-04-20T06:09:12.263Z,99198.18
2019-04-20T06:12:01.136Z,99194.84
2019-04-20T06:14:37.088Z,99199.01
2019-04-20T06:17:22.931Z,99200.52
2019-04-20T06:19:51.943Z,99204.51
2019-04-20T06:22:34.959Z,99203.02
2019-04-20T06:25:23.622Z,99203.38
2019-04-20T06:27:46.064Z,99202.77
2019-04-20T06:30:10.928Z,99210.89
2019-04-20T06:34:01.321Z,99213.94
2019-04-20T06:39:13.362Z,99214.75
2019-04-20T06:41:34.992Z,99215.47
2019-04-20T06:44:08.393Z,99221.71
2019-04-20T06:46:37.446Z,99220.90
2019-04-20T06:49:18.353Z,99223.95
2019-04-20T06:51:49.081Z,99222.03
2019-04-20T06:54:32.416Z,99220.23
2019-04-20T06:57:12.998Z,99219.66
2019-04-20T06:59:43.210Z,99215.38
2019-04-20T07:02:21.864Z,99218.84
2019-04-20T07:05:08.565Z,99217.46
2019-04-20T07:07:36.297Z,99218.45
2019-04-20T07:10:02.623Z,99210.63
2019-04-20T07:12:31.203Z,99220.17
2019-04-20T07:14:50.864Z,99216.71
2019-04-20T07:17:58.975Z,99221.30
2019-04-20T07:20:51.644Z,99223.26
2019-04-20T07:23:26.912Z,99225.32
2019-04-20T07:25:59.520Z,99219.38
2019-04-20T07:28:27.094Z,99212.54
2019-04-20T07:30:55.371Z,99218.40
2019-04-20T07:33:32.248Z,99216.81
2019-04-20T07:36:06.094Z,99214.22
2019-04-20T07:38:42.605Z,99212.80
2019-04-20T07:41:08.286Z,99209.52
2019-04-20T07:43:57.373Z,99215.09
2019-04-20T07:46:35.219Z,99210.19
2019-04-20T07:48:54.381Z,99213.58
2019-04-20T07:51:13.468Z,99209.47
2019-04-20T07:54:08.884Z,99207.22
2019-04-20T07:56:37.547Z,99209.09
2019-04-20T07:58:52.738Z,99201.52
2019-04-20T08:02:06.017Z,99203.22
2019-04-20T08:04:28.572Z,99207.48
2019-04-20T08:06:49.867Z,99202.00
2019-04-20T08:09:28.088Z,99208.30
2019-04-20T08:12:26.848Z,99200.02
2019-04-20T08:14:56.852Z,99206.33
2019-04-20T08:17:31.222Z,99199.63
2019-04-20T08:20:00.124Z,99198.98
2019-04-20T08:22:35.482Z,99194.62
2019-04-20T08:25:01.359Z,99191.41
2019-04-20T08:27:23.463Z,99193.31
2019-04-20T08:30:22.831Z,99192.33
2019-04-20T08:33:06.873Z,99190.42
2019-04-20T08:35:51.248Z,99189.73
2019-04-20T08:40:47.881Z,99187.91
2019-04-20T08:43:39.580Z,99188.59
2019-04-20T08:45:59.605Z,99189.70
2019-04-20T08:48:34.819Z,99193.66
2019-04-20T08:51:03.594Z,99192.53
2019-04-20T08:53:37.025Z,99190.53
2019-04-20T08:56:05.494Z,99176.92
2019-04-20T08:58:24.864Z,99178.81
2019-04-20T09:01:00.830Z,99181.58
2019-04-20T09:03:40.883Z,99174.17
2019-04-20T09:06:14.568Z,99163.67
2019-04-20T09:08:46.649Z,99167.69
2019-04-20T09:11:25.038Z,99164.80
2019-04-20T09:13:48.434Z,99165.32
2019-04-20T09:16:19.962Z,99159.06
2019-04-20T09:18:57.906Z,99159.06
2019-04-20T09:21:38.017Z,99162.75
2019-04-20T09:24:26.915Z,99155.94
2019-04-20T09:26:48.975Z,99153.42
2019-04-20T09:29:23.608Z,99154.28
2019-04-20T09:32:00.261Z,99147.75
2019-04-20T09:34:45.268Z,99146.73
2019-04-20T09:37:41.675Z,99141.75
2019-04-20T09:40:33.054Z,99137.83
2019-04-20T09:42:53.717Z,99142.62
2019-04-20T09:45:37.094Z,99138.93
2019-04-20T09:48:13.257Z,99142.14
2019-04-20T09:50:55.522Z,99141.66
2019-04-20T09:53:24.788Z,99133.98
2019-04-20T09:56:01.908Z,99132.00
2019-04-20T09:58:28.069Z,99134.30
2019-04-20T10:01:01.814Z,99147.84
2019-04-20T10:03:24.871Z,99138.16
2019-04-20T10:05:57.049Z,99134.38
2019-04-20T10:08:29.364Z,99131.66
2019-04-20T10:11:01.489Z,99129.81
2019-04-20T10:13:34.385Z,99119.16
2019-04-20T10:16:06.172Z,99119.14
2019-04-20T10:18:44.177Z,99122.65
2019-04-20T10:21:13.771Z,99124.05
2019-04-20T10:23:45.458Z,99122.01
2019-04-20T10:26:18.562Z,99115.06
2019-04-20T10:28:51.814Z,99112.37
2019-04-20T10:31:24.521Z,99114.88
2019-04-20T10:33:57.534Z,99118.17
2019-04-20T10:37:01.680Z,99114.38
2019-04-20T10:39:36.311Z,99110.55
2019-04-20T10:42:08.414Z,99117.05
2019-04-20T10:44:40.952Z,99109.72
2019-04-20T10:47:12.730Z,99112.89
2019-04-20T10:49:45.045Z,99108.53
2019-04-20T10:52:17.866Z,99102.86
2019-04-20T10:54:50.342Z,99098.98
2019-04-20T10:57:22.048Z,99095.30
2019-04-20T10:59:53.624Z,99102.80
2019-04-20T11:02:25.869Z,99108.78
2019-04-20T11:04:58.836Z,99116.95
2019-04-20T11:07:30.614Z,99106.66
2019-04-20T11:10:14.276Z,99097.47
2019-04-20T11:12:38.017Z,99100.20
2019-04-20T11:15:10.570Z,99097.86
2019-04-20T11:17:43.456Z,99102.20
2019-04-20T11:20:15.378Z,99095.70
2019-04-20T11:22:48.436Z,99091.52
2019-04-20T11:25:20.209Z,99100.03
2019-04-20T11:27:52.259Z,99085.70
2019-04-20T11:30:24.078Z,99091.00
2019-04-20T11:32:56.013Z,99082.47
2019-04-20T11:35:32.670Z,99087.15
2019-04-20T11:38:01.188Z,99082.02
2019-04-20T11:40:32.975Z,99083.66
2019-04-20T11:43:05.750Z,99077.66
2019-04-20T11:45:38.490Z,99070.84
2019-04-20T11:48:11.549Z,99080.69
2019-04-20T11:50:43.437Z,99069.20
2019-04-20T11:53:17.430Z,99080.87
2019-04-20T11:55:49.102Z,99064.52
2019-04-20T11:58:21.770Z,99064.51
2019-04-20T12:01:03.202Z,99062.36
2019-04-20T12:03:38.061Z,99058.02
2019-04-20T12:06:06.294Z,99054.69
2019-04-20T12:08:40.191Z,99050.35
2019-04-20T12:11:22.791Z,99056.50
2019-04-20T12:13:42.828Z,99045.19
2019-04-20T12:16:14.459Z,99056.86
2019-04-20T12:18:46.403Z,99042.84
2019-04-20T12:21:18.928Z,99037.98
2019-04-20T12:23:51.998Z,99039.48
2019-04-20T12:26:24.849Z,99043.81
2019-04-20T12:28:57.894Z,99030.81
2019-04-20T12:31:29.616Z,99036.31
2019-04-20T12:34:02.290Z,99043.67
2019-04-20T12:36:35.296Z,99032.50
2019-04-20T12:39:10.990Z,99028.34
2019-04-20T12:41:49.816Z,99025.48
2019-04-20T12:44:17.421Z,99020.32
2019-04-20T12:46:49.912Z,99043.33
2019-04-20T12:49:21.601Z,99028.63
2019-04-20T12:51:58.011Z,99029.14
2019-04-20T12:54:26.938Z,99036.95
2019-04-20T12:56:58.662Z,99034.63
2019-04-20T12:59:31.580Z,99023.97
2019-04-20T13:02:03.401Z,99021.30
2019-04-20T13:04:37.297Z,99022.63
2019-04-20T13:07:10.095Z,99020.45
2019-04-20T13:09:50.652Z,99008.28
2019-04-20T13:12:52.296Z,99017.13
2019-04-20T13:15:54.683Z,99002.98
2019-04-20T13:18:31.185Z,99010.81
2019-04-20T13:21:03.262Z,99000.63
2019-04-20T13:23:35.147Z,98995.44
2019-04-20T13:26:08.744Z,98994.81
2019-04-20T13:28:41.321Z,98993.80
2019-04-20T13:31:15.621Z,98989.31
2019-04-20T13:33:47.693Z,98994.33
2019-04-20T13:36:19.965Z,98985.64
2019-04-20T13:38:52.242Z,98979.82
2019-04-20T13:41:24.414Z,98981.64
2019-04-20T13:43:59.257Z,98970.63
2019-04-20T13:46:29.475Z,98970.15
2019-04-20T13:49:01.066Z,98968.64
2019-04-20T13:51:32.902Z,98963.78
2019-04-20T13:54:06.268Z,98962.45
2019-04-20T13:56:39.740Z,98961.78
2019-04-20T13:59:27.846Z,98946.42
2019-04-20T14:02:10.897Z,98941.91
2019-04-20T14:04:52.825Z,98944.38
2019-04-20T14:07:27.039Z,98939.38
2019-04-20T14:09:59.506Z,98944.55
2019-04-20T14:12:37.134Z,98953.06
2019-04-20T14:15:06.805Z,98938.90
2019-04-20T14:17:39.244Z,98939.55
2019-04-20T14:20:13.880Z,98929.42
2019-04-20T14:22:45.205Z,98925.11
2019-04-20T14:25:16.931Z,98922.27
2019-04-20T14:27:48.759Z,98916.59
2019-04-20T14:30:21.120Z,98922.61
2019-04-20T14:32:54.709Z,98917.27
2019-04-20T14:35:27.075Z,98915.08
2019-04-20T14:37:59.682Z,98920.25
2019-04-20T14:40:32.446Z,98909.58
2019-04-20T14:43:04.205Z,98910.60
2019-04-20T14:45:36.673Z,98910.94
2019-04-20T14:48:09.841Z,98902.59
2019-04-20T14:50:41.590Z,98904.23
2019-04-20T14:53:13.612Z,98906.39
2019-04-20T14:55:45.248Z,98906.39
2019-04-20T14:58:38.343Z,98902.56
2019-04-20T15:01:18.579Z,98904.72
2019-04-20T15:03:59.825Z,98902.39
2019-04-20T15:06:23.478Z,98898.73
2019-04-20T15:08:55.101Z,98896.44
2019-04-20T15:11:27.090Z,98893.42
2019-04-20T15:13:58.806Z,98899.41
2019-04-20T15:16:30.776Z,98890.08
2019-04-20T15:19:23.667Z,98888.57
2019-04-20T15:21:57.710Z,98887.44
2019-04-20T15:24:29.466Z,98881.59
2019-04-20T15:27:02.444Z,98879.27
2019-04-20T15:29:34.159Z,98874.61
2019-04-20T15:32:06.090Z,98871.42
2019-04-20T15:34:39.107Z,98871.77
2019-04-20T15:37:11.968Z,98873.24
2019-04-20T15:39:43.727Z,98866.61
2019-04-20T15:42:15.396Z,98869.27
2019-04-20T15:44:49.280Z,98866.61
2019-04-20T15:47:22.278Z,98863.59
2019-04-20T15:49:54.047Z,98863.80
2019-04-20T15:52:33.574Z,98858.31
2019-04-20T15:55:03.099Z,98861.80
2019-04-20T15:57:34.504Z,98861.16
2019-04-20T16:00:08.724Z,98849.33
2019-04-20T16:02:51.441Z,98852.81
2019-04-20T16:05:37.666Z,98852.64
2019-04-20T16:08:46.387Z,98852.33
2019-04-20T16:11:19.332Z,98851.16
2019-04-20T16:13:53.843Z,98842.97
2019-04-20T16:16:25.684Z,98841.33
2019-04-20T16:18:58.834Z,98842.82
2019-04-20T16:21:33.900Z,98844.33
2019-04-20T16:24:10.945Z,98838.31
2019-04-20T16:26:53.685Z,98838.50
2019-04-20T16:29:25.873Z,98830.00
2019-04-20T16:31:58.343Z,98827.84
2019-04-20T16:34:29.964Z,98834.36
2019-04-20T16:37:02.173Z,98821.53
2019-04-20T16:39:34.371Z,98827.20
2019-04-20T16:42:08.609Z,98827.86
2019-04-20T16:44:41.248Z,98833.72
2019-04-20T16:47:14.231Z,98823.56
2019-04-20T16:49:46.724Z,98829.02
2019-04-20T16:52:19.120Z,98830.33
2019-04-20T16:54:50.814Z,98820.03
2019-04-20T16:57:23.697Z,98817.03
2019-04-20T16:59:57.772Z,98813.84
2019-04-20T17:02:29.850Z,98810.70
2019-04-20T17:05:02.968Z,98811.20
2019-04-20T17:07:39.314Z,98815.36
2019-04-20T17:10:12.310Z,98809.03
2019-04-20T17:12:45.905Z,98810.70
2019-04-20T17:15:21.322Z,98810.70
2019-04-20T17:17:55.217Z,98812.19
2019-04-20T17:20:27.289Z,98815.52
2019-04-20T17:23:00.358Z,98813.34
2019-04-20T17:25:34.027Z,98809.70
2019-04-20T17:28:24.936Z,98807.34
2019-04-20T17:31:03.071Z,98812.66
2019-04-20T17:33:54.147Z,98812.17
2019-04-20T17:36:19.737Z,98810.93
2019-04-20T17:38:54.163Z,98808.77
2019-04-20T17:41:44.534Z,98813.89
2019-04-20T17:44:14.221Z,98810.20
2019-04-20T17:46:43.868Z,98809.04
2019-04-20T17:49:18.309Z,98803.05
2019-04-20T17:51:58.090Z,98809.15
2019-04-20T17:54:27.203Z,98805.80
2019-04-20T17:57:00.277Z,98813.09
2019-04-20T17:59:32.388Z,98812.87
2019-04-20T18:02:54.141Z,98805.69
2019-04-20T18:05:37.118Z,98809.98
2019-04-20T18:08:10.616Z,98806.56
2019-04-20T18:10:36.480Z,98813.64
2019-04-20T18:12:56.529Z,98807.16
2019-04-20T18:15:42.335Z,98801.60
2019-04-20T18:18:42.129Z,98809.64
2019-04-20T18:21:16.903Z,98808.94
2019-04-20T18:24:14.446Z,98808.06
2019-04-20T18:26:59.346Z,98810.08
2019-04-20T18:29:36.781Z,98810.48
2019-04-20T18:32:09.859Z,98813.39
2019-04-20T18:34:54.127Z,98814.80
2019-04-20T18:37:23.915Z,98816.56
2019-04-20T18:39:59.669Z,98816.97
2019-04-20T18:42:36.730Z,98814.77
2019-04-20T18:45:21.651Z,98813.46
2019-04-20T18:47:59.238Z,98817.83
2019-04-20T18:50:17.321Z,98816.01
2019-04-20T18:52:42.377Z,98816.58
2019-04-20T18:55:22.229Z,98823.75
2019-04-20T18:57:48.950Z,98822.45
2019-04-20T19:00:28.765Z,98826.13
2019-04-20T19:03:01.376Z,98818.66
2019-04-20T19:05:29.668Z,98817.98
2019-04-20T19:08:05.291Z,98823.16
2019-04-20T19:10:38.068Z,98819.26
2019-04-20T19:13:22.968Z,98821.50
2019-04-20T19:16:17.584Z,98818.24
2019-04-20T19:19:06.650Z,98824.17
2019-04-20T19:21:31.104Z,98826.84
2019-04-20T19:24:09.232Z,98825.78
2019-04-20T19:26:38.486Z,98831.09
2019-04-20T19:29:19.965Z,98834.42
2019-04-20T19:32:05.921Z,98832.60
2019-04-20T19:34:35.411Z,98830.81
2019-04-20T19:37:02.411Z,98827.80
2019-04-20T19:39:39.850Z,98826.92
2019-04-20T19:42:13.136Z,98823.81
2019-04-20T19:44:49.515Z,98828.47
2019-04-20T19:47:28.463Z,98823.36
2019-04-20T19:49:49.728Z,98826.04
2019-04-20T19:52:53.081Z,98831.39
2019-04-20T19:55:03.339Z,98830.23
2019-04-20T19:57:38.901Z,98826.36
2019-04-20T19:59:55.523Z,98825.63
2019-04-20T20:02:25.906Z,98832.52
2019-04-20T20:05:05.362Z,98832.72
2019-04-20T20:07:40.140Z,98835.63
2019-04-20T20:10:09.136Z,98832.69
2019-04-20T20:12:49.424Z,98838.10
2019-04-20T20:15:22.288Z,98837.09
2019-04-20T20:18:10.215Z,98837.69
2019-04-20T20:20:41.480Z,98839.38
2019-04-20T20:22:58.151Z,98837.74
2019-04-20T20:25:32.852Z,98837.26
2019-04-20T20:28:17.085Z,98836.81
2019-04-20T20:30:42.817Z,98835.75
2019-04-20T20:33:23.823Z,98832.17
2019-04-20T20:35:49.279Z,98838.34
2019-04-20T20:38:22.422Z,98837.85
2019-04-20T20:40:57.902Z,98836.94
2019-04-20T20:43:37.611Z,98838.01
2019-04-20T20:46:05.254Z,98839.56
2019-04-20T20:48:54.348Z,98836.25
2019-04-20T20:51:15.197Z,98840.31
2019-04-20T20:53:47.319Z,98840.31
2019-04-20T20:56:15.509Z,98839.93
2019-04-20T20:58:53.887Z,98836.34
2019-04-20T21:01:22.210Z,98839.23
2019-04-20T21:03:52.566Z,98841.03
2019-04-20T21:06:22.443Z,98840.19
2019-04-20T21:08:56.705Z,98843.29
2019-04-20T21:11:31.444Z,98840.52
2019-04-20T21:14:04.394Z,98845.20
2019-04-20T21:16:40.470Z,98846.16
2019-04-20T21:19:23.474Z,98845.42
2019-04-20T21:21:50.503Z,98840.61
2019-04-20T21:24:46.731Z,98848.62
2019-04-20T21:27:19.800Z,98845.48
2019-04-20T21:29:54.266Z,98850.76
2019-04-20T21:32:23.722Z,98849.11
2019-04-20T21:35:02.661Z,98850.05
2019-04-20T21:37:29.026Z,98844.53
2019-04-20T21:40:11.627Z,98839.23
2019-04-20T21:42:42.476Z,98845.05
2019-04-20T21:45:15.867Z,98836.19
2019-04-20T21:47:43.064Z,98837.12
2019-04-20T21:50:30.013Z,98828.00
2019-04-20T21:52:51.838Z,98833.13
2019-04-20T21:55:21.778Z,98823.78
2019-04-20T21:57:58.460Z,98823.12
2019-04-20T22:00:42.486Z,98816.89
2019-04-20T22:03:13.681Z,98824.00
2019-04-20T22:05:46.546Z,98818.47
2019-04-20T22:08:19.703Z,98810.42
2019-04-20T22:10:51.491Z,98818.95
2019-04-20T22:13:29.298Z,98815.80
2019-04-20T22:16:02.003Z,98810.41
2019-04-20T22:18:31.794Z,98811.41
2019-04-20T22:21:13.278Z,98803.62
2019-04-20T22:23:57.123Z,98810.94
2019-04-20T22:26:24.433Z,98804.98
2019-04-20T22:28:44.579Z,98808.40
2019-04-20T22:31:16.365Z,98800.47
2019-04-20T22:33:48.921Z,98798.27
2019-04-20T22:36:25.942Z,98791.27
2019-04-20T22:39:13.962Z,98796.52
2019-04-20T22:41:53.559Z,98794.00
2019-04-20T22:44:26.597Z,98786.08
2019-04-20T22:46:56.784Z,98783.56
2019-04-20T22:49:44.231Z,98780.66
2019-04-20T22:52:22.290Z,98781.42
2019-04-20T22:54:51.806Z,98775.31
2019-04-20T22:57:27.879Z,98781.05
2019-04-20T22:59:51.905Z,98774.86
2019-04-20T23:02:16.316Z,98773.08
2019-04-20T23:04:48.785Z,98770.83
2019-04-20T23:07:20.908Z,98769.14
2019-04-20T23:09:54.958Z,98766.42
2019-04-20T23:12:27.554Z,98764.06
2019-04-20T23:15:00.199Z,98767.25
2019-04-20T23:17:39.820Z,98766.20
2019-04-20T23:20:13.174Z,98762.44
2019-04-20T23:22:42.508Z,98769.50
2019-04-20T23:25:13.366Z,98758.51
2019-04-20T23:27:45.776Z,98752.89
2019-04-20T23:30:23.578Z,98749.28
2019-04-20T23:32:51.760Z,98756.09
2019-04-20T23:35:26.580Z,98753.10
2019-04-20T23:38:05.518Z,98750.73
2019-04-20T23:40:30.119Z,98751.81
2019-04-20T23:43:17.747Z,98753.12
2019-04-20T23:46:01.118Z,98747.40
2019-04-20T23:48:48.086Z,98749.11
2019-04-20T23:51:44.204Z,98752.17
2019-04-20T23:54:02.010Z,98749.68
2019-04-20T23:56:27.856Z,98752.30
2019-04-20T23:58:59.881Z,98748.13
